Time;durP1;ratioP1;P1;durP2;ratioP2;P2;SDS_P1;SDS_P2;PMS_P1;PMS_P2;Temp;Humidity;BMP_temperature;BMP_pressure;BME280_temperature;BME280_humidity;BME280_pressure;Samples;Min_cycle;Max_cycle;Signal;HPM_P1;HPM_P2
2022/07/09 00:00:13;;;;;;;3.10;2.50;;;;;;;17.32;92.53;94538.94;4993362;28;20202;-76
2022/07/09 00:02:40;;;;;;;5.47;2.45;;;;;;;17.26;93.87;94543.16;4993679;28;20201;-75
2022/07/09 00:05:10;;;;;;;3.00;2.40;;;;;;;17.27;94.06;94536.50;4993434;28;20727;-76
2022/07/09 00:07:37;;;;;;;3.88;2.55;;;;;;;17.24;94.65;94537.25;4993984;28;20256;-76
2022/07/09 00:10:04;;;;;;;4.03;2.53;;;;;;;17.00;96.34;94533.81;4993762;28;20237;-75
2022/07/09 00:12:31;;;;;;;3.85;2.42;;;;;;;16.81;97.06;94542.16;4993730;28;20206;-76
2022/07/09 00:14:57;;;;;;;3.47;2.70;;;;;;;16.62;98.73;94547.72;4993472;28;20351;-78
2022/07/09 00:17:25;;;;;;;3.10;2.47;;;;;;;16.52;100.00;94537.41;4993843;28;20669;-78
2022/07/09 00:19:52;;;;;;;4.63;2.85;;;;;;;16.47;100.00;94533.03;4993633;28;20202;-75
2022/07/09 00:22:20;;;;;;;5.18;3.35;;;;;;;16.57;100.00;94537.06;4992882;28;20928;-77
2022/07/09 00:24:47;;;;;;;5.03;2.95;;;;;;;16.51;100.00;94528.41;4993372;28;20205;-76
2022/07/09 00:27:14;;;;;;;4.63;2.90;;;;;;;16.50;100.00;94528.78;4993451;28;20205;-77
2022/07/09 00:29:40;;;;;;;4.10;2.83;;;;;;;16.53;100.00;94528.84;4993033;28;20268;-76
2022/07/09 00:32:08;;;;;;;3.47;2.70;;;;;;;16.49;100.00;94524.47;4992507;28;20202;-76
2022/07/09 00:34:35;;;;;;;4.72;3.00;;;;;;;16.38;100.00;94528.97;4992663;28;20198;-75
2022/07/09 00:37:01;;;;;;;5.97;3.38;;;;;;;16.32;100.00;94520.28;4993712;28;20240;-76
2022/07/09 00:39:30;;;;;;;4.63;2.47;;;;;;;16.37;99.96;94524.66;4993431;28;20210;-76
2022/07/09 00:42:04;;;;;;;5.60;2.15;;;;;;;16.41;99.78;94530.94;4980568;28;20673;-76
2022/07/09 00:44:32;;;;;;;4.43;2.63;;;;;;;16.50;100.00;94528.78;4993036;28;20197;-77
2022/07/09 00:46:59;;;;;;;4.95;2.60;;;;;;;16.34;99.77;94521.50;4992881;28;20206;-77
2022/07/09 00:49:29;;;;;;;3.70;2.30;;;;;;;16.34;99.55;94521.50;4992500;28;20260;-78
2022/07/09 00:51:57;;;;;;;3.03;2.22;;;;;;;16.41;99.70;94517.28;4992613;28;20220;-78
2022/07/09 00:54:24;;;;;;;2.92;2.08;;;;;;;16.38;99.31;94520.78;4992100;28;20208;-76
2022/07/09 00:56:53;;;;;;;3.53;2.58;;;;;;;16.50;99.14;94512.38;4992740;28;20248;-76
2022/07/09 00:59:21;;;;;;;5.60;1.90;;;;;;;16.31;99.07;94503.09;4992776;28;20206;-76
2022/07/09 01:01:50;;;;;;;3.25;1.98;;;;;;;16.39;98.75;94511.41;4992274;28;20604;-78
2022/07/09 01:04:17;;;;;;;4.15;2.25;;;;;;;16.26;98.48;94497.91;4992535;28;20292;-78
2022/07/09 01:06:44;;;;;;;2.45;1.80;;;;;;;16.32;99.20;94506.63;4992486;28;20206;-79
2022/07/09 01:09:11;;;;;;;2.28;1.85;;;;;;;16.22;99.30;94494.38;4992145;28;20240;-78
2022/07/09 01:11:38;;;;;;;7.90;1.88;;;;;;;16.18;99.41;94501.72;4992639;28;20244;-78
2022/07/09 01:14:06;;;;;;;4.13;2.17;;;;;;;16.26;99.28;94499.91;4992729;28;20206;-78
2022/07/09 01:16:35;;;;;;;2.33;1.50;;;;;;;16.27;99.73;94499.50;4992434;28;20198;-79
2022/07/09 01:19:02;;;;;;;1.92;1.50;;;;;;;16.25;99.61;94495.56;4992641;28;20209;-78
2022/07/09 01:21:30;;;;;;;3.13;1.67;;;;;;;16.21;99.59;94490.03;4991761;28;20644;-78
2022/07/09 01:23:57;;;;;;;2.33;2.00;;;;;;;16.27;99.33;94485.03;4991718;28;20206;-78
2022/07/09 01:26:24;;;;;;;3.00;1.88;;;;;;;16.13;99.80;94487.53;4992321;28;20202;-78
2022/07/09 01:28:51;;;;;;;2.45;1.88;;;;;;;16.11;99.58;94487.94;4992365;28;20265;-78
2022/07/09 01:31:18;;;;;;;3.28;2.47;;;;;;;16.12;99.03;94481.31;4992337;28;20739;-78
2022/07/09 01:33:45;;;;;;;3.05;2.00;;;;;;;16.07;99.64;94484.34;4991551;28;20233;-79
2022/07/09 01:36:12;;;;;;;3.03;2.17;;;;;;;16.15;99.23;94485.25;4992104;28;20608;-79
2022/07/09 01:38:40;;;;;;;2.80;2.08;;;;;;;16.17;99.32;94478.25;4992428;28;20288;-78
2022/07/09 01:41:07;;;;;;;2.95;1.80;;;;;;;16.20;99.28;94483.00;4992793;28;20201;-78
2022/07/09 01:43:34;;;;;;;4.15;2.03;;;;;;;16.30;99.33;94492.50;4992222;28;20264;-79
2022/07/09 01:46:01;;;;;;;2.80;2.20;;;;;;;16.33;98.84;94478.91;4992144;28;20202;-78
2022/07/09 01:48:28;;;;;;;2.95;2.08;;;;;;;16.38;98.05;94477.03;4992422;28;20202;-79
2022/07/09 01:50:55;;;;;;;2.05;1.80;;;;;;;16.27;98.55;94483.09;4992306;28;20233;-79
2022/07/09 01:53:22;;;;;;;2.78;2.00;;;;;;;16.23;98.55;94471.34;4992408;28;20208;-79
2022/07/09 01:55:51;;;;;;;6.10;1.95;;;;;;;16.21;98.43;94478.31;4991683;28;20291;-79
2022/07/09 01:58:17;;;;;;;2.60;1.60;;;;;;;16.20;98.79;94477.53;4992401;28;20289;-80
2022/07/09 02:00:45;;;;;;;3.40;1.98;;;;;;;16.18;98.53;94479.06;4992069;28;20224;-80
2022/07/09 02:03:12;;;;;;;2.97;1.73;;;;;;;16.23;98.26;94482.28;4991101;28;20216;-80
2022/07/09 02:05:38;;;;;;;2.90;1.65;;;;;;;16.32;97.90;94485.53;4992037;28;20381;-80
2022/07/09 02:08:05;;;;;;;4.18;2.03;;;;;;;16.25;97.81;94485.44;4991731;28;20296;-80
2022/07/09 02:10:32;;;;;;;3.63;1.83;;;;;;;16.25;97.47;94485.44;4991896;28;20283;-81
2022/07/09 02:13:01;;;;;;;2.17;1.50;;;;;;;16.30;97.97;94493.31;4991458;28;20617;-79
2022/07/09 02:15:27;;;;;;;2.00;1.50;;;;;;;16.16;97.50;94490.34;4991846;28;20225;-80
2022/07/09 02:17:54;;;;;;;3.25;1.92;;;;;;;16.25;97.74;94485.44;4991612;28;20201;-81
2022/07/09 02:20:22;;;;;;;2.85;1.70;;;;;;;16.22;97.66;94494.38;4991141;28;20244;-80
2022/07/09 02:22:51;;;;;;;1.88;1.25;;;;;;;16.28;97.28;94490.16;4992018;28;20268;-80
2022/07/09 02:25:18;;;;;;;2.13;1.67;;;;;;;16.31;97.47;94494.88;4990854;28;20205;-80
2022/07/09 02:27:45;;;;;;;2.03;1.58;;;;;;;16.21;96.56;94494.72;4991581;28;20204;-80
2022/07/09 02:30:13;;;;;;;2.63;1.73;;;;;;;16.31;97.42;94500.34;4991501;28;20270;-81
2022/07/09 02:32:40;;;;;;;1.98;1.38;;;;;;;16.30;97.14;94498.78;4990846;28;20624;-82
2022/07/09 02:35:08;;;;;;;3.58;1.90;;;;;;;16.26;96.74;94497.91;4990532;28;20664;-82
2022/07/09 02:37:35;;;;;;;5.05;1.88;;;;;;;16.23;95.65;94497.88;4991498;28;20228;-82
2022/07/09 02:40:01;;;;;;;1.58;1.38;;;;;;;16.24;95.25;94500.25;4991599;28;20593;-83
2022/07/09 02:42:28;;;;;;;2.60;1.60;;;;;;;16.13;95.54;94504.75;4991646;28;20208;-80
2022/07/09 02:44:55;;;;;;;2.28;1.73;;;;;;;16.10;96.11;94505.50;4991887;28;20248;-81
2022/07/09 02:47:23;;;;;;;1.42;1.33;;;;;;;16.13;96.32;94502.00;4992293;28;20198;-84
2022/07/09 02:49:50;;;;;;;1.95;1.48;;;;;;;16.20;95.56;94504.88;4991906;28;20567;-83
2022/07/09 02:52:17;;;;;;;2.33;1.70;;;;;;;16.21;95.63;94503.72;4992793;28;20692;-82
2022/07/09 02:54:43;;;;;;;1.92;1.65;;;;;;;16.27;95.41;94510.44;4992214;28;20280;-83
2022/07/09 02:57:11;;;;;;;1.50;1.40;;;;;;;16.34;95.76;94510.56;4994343;28;20202;-83
2022/07/09 02:59:38;;;;;;;2.47;1.65;;;;;;;16.40;95.31;94507.53;4996930;28;20213;-83
2022/07/09 03:02:05;;;;;;;3.38;2.00;;;;;;;16.44;95.01;94516.56;4996389;28;20256;-83
2022/07/09 03:04:37;;;;;;;1.92;1.50;;;;;;;16.40;94.33;94518.47;4996335;28;20214;-83
2022/07/09 03:07:04;;;;;;;6.20;1.77;;;;;;;16.41;94.73;94520.81;4996390;28;20202;-84
2022/07/09 03:09:30;;;;;;;2.33;1.70;;;;;;;16.56;94.48;94521.81;4999323;28;20237;-83
2022/07/09 03:11:57;;;;;;;1.95;1.48;;;;;;;16.64;94.03;94518.06;4998735;28;20210;-83
2022/07/09 03:14:24;;;;;;;2.67;1.80;;;;;;;16.72;93.74;94524.44;5005822;28;20272;-83
2022/07/09 03:16:51;;;;;;;5.20;1.77;;;;;;;16.64;93.54;94516.13;5005358;28;20548;-83
2022/07/09 03:19:19;;;;;;;2.72;1.50;;;;;;;16.76;93.29;94515.13;5001082;28;20217;-83
2022/07/09 03:21:47;;;;;;;1.73;1.40;;;;;;;16.62;93.79;94514.88;5000974;28;20233;-83
2022/07/09 03:24:14;;;;;;;2.72;1.73;;;;;;;16.53;93.94;94517.09;5001438;28;20649;-82
2022/07/09 03:26:41;;;;;;;3.95;1.40;;;;;;;16.37;94.74;94513.72;5004414;28;20202;-83
2022/07/09 03:29:08;;;;;;;2.25;1.60;;;;;;;16.39;94.59;94511.41;5006463;28;20635;-84
2022/07/09 03:31:35;;;;;;;2.90;1.95;;;;;;;16.42;94.51;94516.13;5003209;28;20237;-82
2022/07/09 03:34:05;;;;;;;1.92;1.73;;;;;;;16.43;94.60;94506.78;4999533;28;20304;-83
2022/07/09 03:36:32;;;;;;;1.73;1.40;;;;;;;16.35;95.29;94522.28;5002323;28;20604;-82
2022/07/09 03:39:00;;;;;;;2.10;1.65;;;;;;;16.52;94.85;94515.53;4998447;28;20216;-83
2022/07/09 03:41:27;;;;;;;1.98;1.40;;;;;;;16.67;94.60;94511.88;4994376;28;20831;-82
2022/07/09 03:43:54;;;;;;;2.00;1.55;;;;;;;16.79;94.15;94500.72;4994209;28;20253;-82
2022/07/09 03:46:21;;;;;;;2.05;1.58;;;;;;;16.77;93.24;94505.75;4994540;28;20275;-84
2022/07/09 03:48:48;;;;;;;1.70;1.42;;;;;;;16.85;92.97;94501.94;4994494;28;20701;-83
2022/07/09 03:51:15;;;;;;;2.50;1.65;;;;;;;16.93;93.05;94508.31;4993917;28;20241;-82
2022/07/09 03:53:42;;;;;;;2.22;1.45;;;;;;;16.92;93.41;94507.53;4993968;28;20198;-82
2022/07/09 03:56:10;;;;;;;2.25;1.42;;;;;;;16.83;92.16;94515.22;4993416;28;20256;-81
2022/07/09 03:58:37;;;;;;;2.40;1.70;;;;;;;16.93;91.48;94517.31;4993165;28;20251;-82
2022/07/09 04:01:04;;;;;;;1.75;1.60;;;;;;;16.89;91.17;94512.94;4993232;28;20300;-82
2022/07/09 04:03:31;;;;;;;2.17;1.55;;;;;;;16.86;92.51;94506.25;4994154;28;20210;-81
2022/07/09 04:05:58;;;;;;;2.85;1.77;;;;;;;16.74;91.88;94511.97;4993697;28;20287;-80
2022/07/09 04:08:25;;;;;;;2.30;1.70;;;;;;;16.76;92.30;94509.66;4993059;28;20272;-79
2022/07/09 04:10:51;;;;;;;2.38;1.77;;;;;;;16.88;92.84;94506.69;4993800;28;20242;-78
2022/07/09 04:13:20;;;;;;;2.53;1.85;;;;;;;16.87;92.69;94515.25;4993894;28;20202;-79
2022/07/09 04:15:46;;;;;;;2.08;1.52;;;;;;;16.84;93.01;94516.78;4994043;28;20628;-78
2022/07/09 04:18:14;;;;;;;2.47;1.33;;;;;;;16.69;92.97;94526.75;4993907;28;20202;-78
2022/07/09 04:20:41;;;;;;;2.15;1.52;;;;;;;16.75;92.60;94529.97;4993864;28;20268;-78
2022/07/09 04:23:08;;;;;;;1.33;1.20;;;;;;;16.59;93.17;94532.03;4993459;28;20235;-78
2022/07/09 04:25:34;;;;;;;1.75;1.48;;;;;;;16.55;92.59;94531.19;4993802;28;20214;-78
2022/07/09 04:28:01;;;;;;;2.58;1.77;;;;;;;16.57;93.54;94534.34;4993523;28;20312;-78
2022/07/09 04:30:29;;;;;;;2.83;1.88;;;;;;;16.52;94.13;94540.13;4993346;28;20226;-78
2022/07/09 04:32:56;;;;;;;3.85;1.90;;;;;;;16.61;94.32;94543.38;4993268;28;20640;-78
2022/07/09 04:35:23;;;;;;;2.90;1.75;;;;;;;16.79;93.79;94541.75;4993089;28;20674;-78
2022/07/09 04:37:50;;;;;;;2.45;1.80;;;;;;;16.62;93.86;94531.28;4993161;28;20197;-78
2022/07/09 04:40:17;;;;;;;5.50;1.92;;;;;;;16.57;94.21;94534.34;4992800;28;20206;-78
2022/07/09 04:42:44;;;;;;;2.28;1.77;;;;;;;16.70;94.24;94533.00;4993524;28;20217;-79
2022/07/09 04:45:12;;;;;;;4.60;1.70;;;;;;;16.82;94.24;94519.09;4993009;28;20657;-79
2022/07/09 04:47:40;;;;;;;1.70;1.58;;;;;;;16.78;93.23;94512.81;4993571;28;20244;-78
2022/07/09 04:50:08;;;;;;;2.38;1.77;;;;;;;16.69;93.06;94520.47;4980211;28;20723;-77
2022/07/09 04:52:35;;;;;;;2.03;1.63;;;;;;;16.70;92.95;94528.31;4993330;28;20237;-78
2022/07/09 04:55:01;;;;;;;2.78;1.90;;;;;;;16.88;92.75;94523.09;4993187;28;20474;-79
2022/07/09 04:57:28;;;;;;;3.67;1.80;;;;;;;16.93;92.48;94520.06;4992891;28;20214;-80
2022/07/09 04:59:58;;;;;;;2.78;2.00;;;;;;;17.18;92.35;94525.84;4992702;28;20197;-79
2022/07/09 05:02:25;;;;;;;2.28;1.40;;;;;;;17.07;92.03;94524.16;4992967;28;20205;-79
2022/07/09 05:04:54;;;;;;;1.67;1.58;;;;;;;17.14;91.39;94530.50;4992965;28;20259;-78
2022/07/09 05:07:20;;;;;;;2.38;1.80;;;;;;;17.02;91.67;94523.31;4992918;28;20284;-79
2022/07/09 05:09:47;;;;;;;2.35;1.80;;;;;;;16.91;93.51;94529.78;4992009;28;20272;-79
2022/07/09 05:12:14;;;;;;;2.63;1.77;;;;;;;16.98;92.52;94527.13;4992433;28;20264;-79
2022/07/09 05:14:41;;;;;;;2.60;1.70;;;;;;;17.11;92.67;94533.19;4992130;28;20664;-79
2022/07/09 05:17:08;;;;;;;1.98;1.58;;;;;;;17.33;92.19;94526.81;4991935;28;20201;-79
2022/07/09 05:19:35;;;;;;;2.15;1.85;;;;;;;17.23;91.60;94532.94;4991259;28;20256;-79
2022/07/09 05:22:03;;;;;;;2.33;1.80;;;;;;;17.30;91.63;94533.03;4991553;28;20209;-78
2022/07/09 05:24:30;;;;;;;2.22;1.60;;;;;;;17.26;91.04;94532.19;4991971;28;20280;-79
2022/07/09 05:26:57;;;;;;;2.53;1.58;;;;;;;17.12;91.07;94537.50;4992109;28;20617;-79
2022/07/09 05:29:25;;;;;;;2.35;1.80;;;;;;;16.98;91.27;94544.34;4992236;28;20356;-79
2022/07/09 05:31:51;;;;;;;2.05;1.70;;;;;;;16.95;91.38;94541.56;4992116;28;20237;-79
2022/07/09 05:34:18;;;;;;;2.50;1.75;;;;;;;17.01;91.97;94549.09;4992215;28;20241;-79
2022/07/09 05:36:45;;;;;;;1.92;1.52;;;;;;;16.97;90.85;94553.72;4992465;28;20256;-79
2022/07/09 05:39:13;;;;;;;5.15;2.10;;;;;;;16.86;91.30;94557.47;4992760;28;20202;-80
2022/07/09 05:41:40;;;;;;;1.58;1.40;;;;;;;16.82;90.85;94557.41;4991810;28;20202;-79
2022/07/09 05:44:07;;;;;;;2.58;1.83;;;;;;;16.80;91.44;94559.75;4992350;28;20205;-79
2022/07/09 05:46:34;;;;;;;2.13;1.63;;;;;;;16.94;90.92;94559.94;4991686;28;20665;-78
2022/07/09 05:49:00;;;;;;;1.85;1.30;;;;;;;16.91;91.36;94560.69;4992365;28;20205;-79
2022/07/09 05:51:27;;;;;;;2.05;1.60;;;;;;;16.84;90.99;94566.03;4992168;28;20647;-77
2022/07/09 05:53:54;;;;;;;5.40;1.83;;;;;;;16.93;91.13;94558.38;4992166;28;20260;-78
2022/07/09 05:56:22;;;;;;;1.67;1.55;;;;;;;17.03;91.32;94557.72;4991703;28;20214;-76
2022/07/09 05:58:49;;;;;;;3.35;1.60;;;;;;;17.14;91.21;94557.88;4991971;28;20197;-77
2022/07/09 06:01:16;;;;;;;1.75;1.40;;;;;;;17.19;91.66;94559.50;4991880;28;20285;-77
2022/07/09 06:03:43;;;;;;;1.45;1.23;;;;;;;17.03;90.94;94556.94;4992181;28;20205;-78
2022/07/09 06:06:10;;;;;;;1.55;1.40;;;;;;;17.01;91.65;94560.03;4991924;28;20304;-78
2022/07/09 06:08:37;;;;;;;1.90;1.50;;;;;;;17.06;90.86;94550.72;4991927;28;20636;-77
2022/07/09 06:11:04;;;;;;;5.57;1.60;;;;;;;17.20;91.33;94559.13;4991820;28;20284;-80
2022/07/09 06:13:32;;;;;;;1.98;1.42;;;;;;;17.17;90.55;94561.81;4990815;28;20661;-79
2022/07/09 06:15:59;;;;;;;1.77;1.38;;;;;;;17.31;89.61;94570.22;4991928;28;20260;-78
2022/07/09 06:18:27;;;;;;;2.35;1.65;;;;;;;17.20;90.25;94566.56;4991605;28;20198;-79
2022/07/09 06:20:53;;;;;;;1.52;1.10;;;;;;;17.17;89.71;94561.81;4991615;28;20688;-77
2022/07/09 06:23:21;;;;;;;1.80;1.42;;;;;;;17.24;90.84;94567.38;4991801;28;20205;-77
2022/07/09 06:25:48;;;;;;;3.38;2.03;;;;;;;17.11;89.49;94568.75;4990882;28;20682;-77
2022/07/09 06:28:15;;;;;;;2.13;1.70;;;;;;;17.04;90.63;94573.00;4991097;28;20562;-77
2022/07/09 06:30:43;;;;;;;2.13;1.40;;;;;;;17.15;90.49;94562.19;4992472;28;20226;-77
2022/07/09 06:33:10;;;;;;;2.80;1.70;;;;;;;17.18;90.81;94574.34;4994705;28;20244;-77
2022/07/09 06:35:37;;;;;;;2.13;1.55;;;;;;;17.32;91.03;94569.84;4995493;28;20209;-79
2022/07/09 06:38:04;;;;;;;2.28;1.60;;;;;;;17.25;90.39;94564.25;4995227;28;20665;-79
2022/07/09 06:40:31;;;;;;;2.90;1.52;;;;;;;17.20;90.12;94577.50;4995589;28;20210;-79
2022/07/09 06:42:58;;;;;;;2.42;1.40;;;;;;;17.19;90.24;94575.94;4994521;28;20205;-78
2022/07/09 06:45:24;;;;;;;1.92;1.52;;;;;;;17.33;89.62;94570.63;4995163;28;20629;-78
2022/07/09 06:47:53;;;;;;;3.60;1.65;;;;;;;17.31;88.94;94579.22;4995218;28;20209;-79
2022/07/09 06:50:21;;;;;;;3.65;2.30;;;;;;;17.37;89.57;94577.72;4995219;28;20201;-79
2022/07/09 06:52:47;;;;;;;1.70;1.50;;;;;;;17.29;90.64;94578.00;4995405;28;20268;-79
2022/07/09 06:55:14;;;;;;;4.22;2.25;;;;;;;17.29;90.66;94581.53;4995182;28;20268;-79
2022/07/09 06:57:41;;;;;;;2.55;1.60;;;;;;;17.31;90.15;94581.16;4995562;28;20205;-79
2022/07/09 07:00:09;;;;;;;1.65;1.40;;;;;;;17.27;91.02;94583.06;4995125;28;20248;-81
2022/07/09 07:02:35;;;;;;;1.60;1.48;;;;;;;17.39;90.24;94580.09;4994633;28;20610;-81
2022/07/09 07:05:04;;;;;;;2.42;1.80;;;;;;;17.53;89.56;94580.28;4995006;28;20197;-81
2022/07/09 07:07:31;;;;;;;2.70;1.92;;;;;;;17.75;89.26;94576.66;4995178;28;20221;-81
2022/07/09 07:09:58;;;;;;;2.58;1.90;;;;;;;17.75;88.80;94582.16;4995225;28;20202;-80
2022/07/09 07:12:24;;;;;;;2.83;2.03;;;;;;;17.92;86.89;94579.97;4997061;28;20233;-80
2022/07/09 07:14:51;;;;;;;2.78;1.75;;;;;;;18.27;87.29;94580.34;4994038;28;20205;-80
2022/07/09 07:17:18;;;;;;;3.92;1.90;;;;;;;18.20;85.56;94583.00;4995044;28;20210;-80
2022/07/09 07:19:45;;;;;;;2.33;1.90;;;;;;;18.06;85.60;94574.63;4994736;28;20242;-82
2022/07/09 07:22:13;;;;;;;2.33;2.00;;;;;;;18.10;86.75;94586.44;4994747;28;20268;-83
2022/07/09 07:24:41;;;;;;;3.95;1.80;;;;;;;17.90;87.66;94582.31;4994784;28;20842;-81
2022/07/09 07:27:08;;;;;;;2.28;1.77;;;;;;;18.28;86.59;94587.41;4996611;28;20202;-81
2022/07/09 07:29:34;;;;;;;1.98;1.60;;;;;;;18.40;86.30;94584.38;5004888;28;20256;-83
2022/07/09 07:32:01;;;;;;;3.20;2.47;;;;;;;18.42;85.12;94576.56;5001132;28;20236;-81
2022/07/09 07:34:28;;;;;;;3.75;1.58;;;;;;;18.66;85.54;94579.91;4994016;28;20272;-81
2022/07/09 07:36:55;;;;;;;2.20;1.60;;;;;;;18.99;83.96;94571.53;4999033;28;20197;-81
2022/07/09 07:39:24;;;;;;;6.75;2.10;;;;;;;19.26;82.89;94574.84;5004800;28;20197;-80
2022/07/09 07:41:51;;;;;;;3.38;1.67;;;;;;;19.40;83.63;94572.16;5002851;28;20251;-78
2022/07/09 07:44:18;;;;;;;3.00;1.60;;;;;;;19.31;81.85;94560.72;4987808;28;20207;-82
2022/07/09 07:46:45;;;;;;;1.77;1.63;;;;;;;19.92;81.60;94566.50;4993928;28;20197;-78
2022/07/09 07:49:12;;;;;;;2.30;2.10;;;;;;;19.96;78.31;94564.53;4998698;28;20198;-80
2022/07/09 07:51:38;;;;;;;2.72;2.53;;;;;;;19.85;80.51;94570.78;4996651;28;20700;-80
2022/07/09 07:54:05;;;;;;;3.15;2.30;;;;;;;19.46;79.74;94573.38;4994075;28;20240;-80
2022/07/09 07:56:36;;;;;;;3.63;2.80;;;;;;;19.10;80.29;94583.38;4994389;28;20264;-77
2022/07/09 07:59:03;;;;;;;2.53;2.00;;;;;;;19.17;81.43;94583.41;4993902;28;20198;-78
2022/07/09 08:01:30;;;;;;;2.50;1.73;;;;;;;18.83;81.90;94581.22;4993843;28;20215;-79
2022/07/09 08:03:57;;;;;;;2.72;2.10;;;;;;;19.32;81.70;94567.78;4994024;28;20208;-78
2022/07/09 08:06:24;;;;;;;2.70;2.08;;;;;;;19.38;81.71;94576.47;4993699;28;20296;-77
2022/07/09 08:08:50;;;;;;;2.35;1.67;;;;;;;19.22;80.99;94574.03;4994135;28;20202;-76
2022/07/09 08:11:17;;;;;;;3.97;2.40;;;;;;;19.14;81.37;94570.44;4993544;28;20225;-78
2022/07/09 08:13:45;;;;;;;3.60;1.98;;;;;;;19.31;81.50;94566.22;4994211;28;20267;-78
2022/07/09 08:16:12;;;;;;;3.50;2.45;;;;;;;19.34;82.35;94570.16;4993074;28;20253;-76
2022/07/09 08:18:39;;;;;;;2.85;2.50;;;;;;;19.74;79.23;94567.22;4993547;28;20740;-77
2022/07/09 08:21:06;;;;;;;4.32;2.80;;;;;;;19.61;79.90;94566.00;4993623;28;20256;-77
2022/07/09 08:23:50;;;;;;;3.28;2.78;;;;;;;19.68;79.01;94557.78;4993872;28;20208;-78
2022/07/09 08:26:18;;;;;;;3.15;2.60;;;;;;;19.55;79.02;94570.28;4993699;28;20193;-76
2022/07/09 08:28:46;;;;;;;2.30;2.00;;;;;;;19.43;79.56;94562.34;4993409;28;20300;-74
2022/07/09 08:31:13;;;;;;;3.00;1.95;;;;;;;19.49;78.94;94563.59;4993272;28;20288;-74
2022/07/09 08:33:40;;;;;;;2.65;1.67;;;;;;;19.45;80.22;94565.50;4993069;28;20238;-74
2022/07/09 08:36:07;;;;;;;2.35;1.95;;;;;;;19.38;79.09;94566.28;4992702;28;20272;-79
2022/07/09 08:38:34;;;;;;;2.67;2.47;;;;;;;19.51;78.92;94572.25;4993170;28;20249;-75
2022/07/09 08:41:01;;;;;;;3.47;1.92;;;;;;;20.36;78.05;94572.53;4993213;28;20202;-75
2022/07/09 08:43:28;;;;;;;2.03;1.88;;;;;;;20.37;76.02;94576.84;4993253;28;20201;-78
2022/07/09 08:45:58;;;;;;;2.67;2.10;;;;;;;20.52;76.76;94575.69;4993397;28;20205;-76
2022/07/09 08:48:25;;;;;;;3.45;1.90;;;;;;;20.24;77.28;94578.34;4979599;28;20209;-75
2022/07/09 08:50:52;;;;;;;3.08;2.55;;;;;;;20.17;77.98;94572.84;4993247;28;20205;-76
2022/07/09 08:53:20;;;;;;;2.17;1.63;;;;;;;20.04;77.29;94579.91;4992466;28;20241;-77
2022/07/09 08:55:47;;;;;;;2.72;1.85;;;;;;;19.77;78.46;94580.22;4991238;28;20201;-77
2022/07/09 08:58:14;;;;;;;3.65;2.88;;;;;;;19.82;78.42;94588.06;4982444;28;20721;-76
2022/07/09 09:00:41;;;;;;;3.30;2.40;;;;;;;19.88;77.99;94578.28;4991793;28;20218;-77
2022/07/09 09:03:10;;;;;;;2.70;2.40;;;;;;;19.96;77.70;94575.53;4994808;28;20256;-76
2022/07/09 09:05:36;;;;;;;2.90;2.58;;;;;;;20.90;75.60;94578.84;4997294;28;20202;-75
2022/07/09 09:08:18;;;;;;;3.35;2.50;;;;;;;20.90;73.68;94576.09;4992166;28;20325;-76
2022/07/09 09:10:46;;;;;;;2.60;2.17;;;;;;;20.54;74.52;94575.28;4992852;28;20691;-77
2022/07/09 09:13:15;;;;;;;2.33;1.67;;;;;;;20.69;74.87;94576.06;4992318;28;20229;-77
2022/07/09 09:15:42;;;;;;;3.10;2.80;;;;;;;20.22;75.95;94578.78;4993237;28;20546;-78
2022/07/09 09:18:11;;;;;;;2.72;2.38;;;;;;;20.29;76.31;94586.25;4991572;28;20264;-77
2022/07/09 09:20:39;;;;;;;2.63;2.33;;;;;;;20.03;77.41;94584.59;4992614;28;20202;-79
2022/07/09 09:23:10;;;;;;;3.25;2.25;;;;;;;19.68;77.89;94574.25;4999933;28;20198;-79
2022/07/09 09:25:38;;;;;;;2.78;1.88;;;;;;;19.18;80.99;94574.00;4992588;28;20243;-79
2022/07/09 09:28:05;;;;;;;3.00;1.90;;;;;;;18.94;83.46;94574.63;4992173;28;20732;-77
2022/07/09 09:30:32;;;;;;;3.15;2.10;;;;;;;18.97;84.63;94579.38;4992414;28;20217;-78
2022/07/09 09:32:59;;;;;;;3.13;2.20;;;;;;;18.83;83.61;94573.78;4991478;28;20241;-78
2022/07/09 09:35:29;;;;;;;2.72;2.08;;;;;;;18.47;84.52;94578.94;4992279;28;20508;-78
2022/07/09 09:37:57;;;;;;;2.95;2.53;;;;;;;18.32;87.11;94588.19;4991831;28;20213;-80
2022/07/09 09:40:24;;;;;;;2.50;2.10;;;;;;;18.39;86.94;94587.50;4992072;28;20216;-78
2022/07/09 09:42:52;;;;;;;3.78;2.47;;;;;;;18.40;86.42;94578.88;4992045;28;20348;-78
2022/07/09 09:45:20;;;;;;;3.88;3.13;;;;;;;18.59;85.81;94574.34;4991988;28;20577;-78
2022/07/09 09:47:48;;;;;;;3.67;2.40;;;;;;;18.80;85.55;94574.53;4991692;28;20617;-77
2022/07/09 09:50:20;;;;;;;5.85;3.28;;;;;;;19.46;84.70;94573.38;4991033;28;20231;-76
2022/07/09 09:52:49;;;;;;;4.28;2.95;;;;;;;19.96;83.99;94578.28;4991635;28;20230;-77
2022/07/09 09:55:18;;;;;;;3.03;2.30;;;;;;;20.63;81.13;94572.16;4992037;28;20267;-76
2022/07/09 09:57:45;;;;;;;9.07;2.95;;;;;;;20.41;80.80;94572.13;4991938;28;20264;-76
2022/07/09 10:00:14;;;;;;;3.05;2.75;;;;;;;20.01;74.64;94578.72;4992215;28;20238;-76
2022/07/09 10:02:44;;;;;;;3.35;2.80;;;;;;;19.42;77.47;94578.03;4991787;28;20610;-76
2022/07/09 10:05:11;;;;;;;3.70;3.40;;;;;;;18.93;79.26;94588.75;4991406;28;20202;-77
2022/07/09 10:07:39;;;;;;;2.65;2.15;;;;;;;18.50;82.34;94585.63;4991607;28;20225;-78
2022/07/09 10:10:08;;;;;;;2.95;2.00;;;;;;;18.27;82.34;94596.78;4991848;28;20739;-78
2022/07/09 10:12:37;;;;;;;3.25;2.78;;;;;;;18.33;84.17;94589.78;4991521;28;20229;-78
2022/07/09 10:15:20;;;;;;;3.08;2.00;;;;;;;18.26;82.66;94592.47;4991676;28;20292;-76
2022/07/09 10:17:47;;;;;;;3.10;2.58;;;;;;;18.36;83.61;94600.00;4979023;28;20276;-79
2022/07/09 10:20:14;;;;;;;3.40;2.92;;;;;;;18.28;83.67;94584.66;4990598;28;20628;-78
2022/07/09 10:22:42;;;;;;;4.90;2.85;;;;;;;18.26;82.96;94595.22;4990673;28;20210;-78
2022/07/09 10:25:13;;;;;;;4.15;2.75;;;;;;;18.44;84.21;94584.41;4991258;28;20212;-76
2022/07/09 10:27:44;;;;;;;2.70;1.77;;;;;;;18.50;82.00;94595.81;4991583;28;20209;-76
2022/07/09 10:30:25;;;;;;;6.30;1.75;;;;;;;18.56;81.35;94594.31;4991250;28;20605;-74
2022/07/09 10:33:06;;;;;;;2.40;1.58;;;;;;;18.68;81.81;94588.56;4990757;28;20371;-76
2022/07/09 10:35:44;;;;;;;2.03;1.80;;;;;;;18.86;81.06;94588.69;4979496;28;20561;-77
2022/07/09 10:38:12;;;;;;;2.47;1.92;;;;;;;18.89;79.96;94588.72;4990909;28;20750;-77
2022/07/09 10:40:42;;;;;;;2.30;1.98;;;;;;;18.95;80.53;94589.94;4991626;28;20213;-76
2022/07/09 10:43:09;;;;;;;2.92;2.20;;;;;;;18.94;81.52;94591.09;4991459;28;20217;-78
2022/07/09 10:45:38;;;;;;;3.83;3.17;;;;;;;19.09;83.33;94581.00;4991516;28;20218;-77
2022/07/09 10:48:06;;;;;;;3.42;2.63;;;;;;;18.95;82.85;94598.19;4991198;28;20280;-78
2022/07/09 10:50:37;;;;;;;3.65;3.35;;;;;;;18.73;85.18;94601.91;4991448;28;20732;-78
2022/07/09 10:53:04;;;;;;;0.90;0.90;;;;;;;18.21;86.28;94592.78;4990609;28;20225;-77
2022/07/09 10:55:31;;;;;;;3.13;1.90;;;;;;;18.02;87.71;94596.53;4991500;28;20275;-78
2022/07/09 10:58:02;;;;;;;2.88;2.40;;;;;;;18.00;89.09;94598.06;4991291;28;20210;-77
2022/07/09 11:00:30;;;;;;;1.58;1.40;;;;;;;17.74;89.95;94597.00;4991602;28;20240;-77
2022/07/09 11:02:58;;;;;;;1.48;1.35;;;;;;;17.48;89.75;94602.53;4990931;28;20213;-78
2022/07/09 11:05:26;;;;;;;1.80;1.23;;;;;;;17.13;90.69;94608.28;4991177;28;20206;-76
2022/07/09 11:08:04;;;;;;;1.20;1.05;;;;;;;16.91;91.38;94615.41;4990933;28;20222;-78
2022/07/09 11:10:33;;;;;;;1.20;1.10;;;;;;;16.92;90.52;94618.94;4991163;28;20196;-80
2022/07/09 11:13:01;;;;;;;1.48;1.10;;;;;;;17.04;90.83;94613.25;4990887;28;20287;-79
2022/07/09 11:15:30;;;;;;;1.83;1.40;;;;;;;17.12;89.23;94614.13;4991059;28;20217;-79
2022/07/09 11:17:58;;;;;;;1.73;1.50;;;;;;;17.40;89.49;94614.53;4993059;28;20204;-77
2022/07/09 11:20:26;;;;;;;1.85;1.25;;;;;;;17.68;87.64;94616.88;4994747;28;20597;-77
2022/07/09 11:22:56;;;;;;;2.05;1.63;;;;;;;17.89;87.59;94610.88;4994119;28;20202;-76
2022/07/09 11:25:24;;;;;;;2.22;0.90;;;;;;;17.72;86.80;94615.78;4994244;28;20209;-77
2022/07/09 11:27:51;;;;;;;1.65;1.30;;;;;;;17.49;85.79;94614.28;4993872;28;20209;-77
2022/07/09 11:30:19;;;;;;;2.45;1.50;;;;;;;17.59;85.87;94611.66;4994083;28;20206;-76
2022/07/09 11:32:47;;;;;;;1.30;1.08;;;;;;;17.58;85.96;94614.78;4993981;28;20247;-77
2022/07/09 11:35:23;;;;;;;0.80;0.80;;;;;;;17.50;85.04;94608.41;4994372;28;20728;-76